sensor_id;sensor_type;location;lat;lon;timestamp;P1;durP1;ratioP1;P2;durP2;ratioP2
42198;SDS011;27868;45.184;5.786;2022-09-09T00:00:05;3.83;;;1.10;;
42198;SDS011;27868;45.184;5.786;2022-09-09T00:06:05;5.15;;;0.88;;
42198;SDS011;27868;45.184;5.786;2022-09-09T00:09:16;3.05;;;0.93;;
42198;SDS011;27868;45.184;5.786;2022-09-09T00:12:12;8.63;;;1.38;;
42198;SDS011;27868;45.184;5.786;2022-09-09T00:15:04;1.75;;;1.00;;
42198;SDS011;27868;45.184;5.786;2022-09-09T00:17:56;2.95;;;1.02;;
42198;SDS011;27868;45.184;5.786;2022-09-09T00:20:58;2.70;;;1.30;;
42198;SDS011;27868;45.184;5.786;2022-09-09T00:23:51;8.20;;;1.77;;
42198;SDS011;27868;45.184;5.786;2022-09-09T00:26:40;4.82;;;1.52;;
42198;SDS011;27868;45.184;5.786;2022-09-09T00:29:41;5.68;;;2.17;;
42198;SDS011;27868;45.184;5.786;2022-09-09T00:32:31;2.95;;;1.30;;
42198;SDS011;27868;45.184;5.786;2022-09-09T00:38:15;3.38;;;1.30;;
42198;SDS011;27868;45.184;5.786;2022-09-09T00:56:20;5.18;;;0.80;;
42198;SDS011;27868;45.184;5.786;2022-09-09T01:01:54;3.95;;;1.00;;
42198;SDS011;27868;45.184;5.786;2022-09-09T01:04:39;2.20;;;0.85;;
42198;SDS011;27868;45.184;5.786;2022-09-09T01:07:26;4.55;;;0.80;;
42198;SDS011;27868;45.184;5.786;2022-09-09T01:10:14;2.08;;;0.77;;
42198;SDS011;27868;45.184;5.786;2022-09-09T01:13:19;3.63;;;0.80;;
42198;SDS011;27868;45.184;5.786;2022-09-09T01:16:10;1.45;;;0.70;;
42198;SDS011;27868;45.184;5.786;2022-09-09T01:18:55;6.05;;;0.85;;
42198;SDS011;27868;45.184;5.786;2022-09-09T01:21:48;2.65;;;1.00;;
42198;SDS011;27868;45.184;5.786;2022-09-09T01:27:52;7.35;;;1.10;;
42198;SDS011;27868;45.184;5.786;2022-09-09T01:30:40;4.00;;;1.10;;
42198;SDS011;27868;45.184;5.786;2022-09-09T01:33:25;6.00;;;0.90;;
42198;SDS011;27868;45.184;5.786;2022-09-09T01:36:12;5.82;;;1.20;;
42198;SDS011;27868;45.184;5.786;2022-09-09T01:39:08;2.85;;;1.20;;
42198;SDS011;27868;45.184;5.786;2022-09-09T01:41:53;4.47;;;0.93;;
42198;SDS011;27868;45.184;5.786;2022-09-09T01:44:40;3.38;;;1.13;;
42198;SDS011;27868;45.184;5.786;2022-09-09T01:47:25;4.32;;;1.30;;
42198;SDS011;27868;45.184;5.786;2022-09-09T01:50:10;3.75;;;1.00;;
42198;SDS011;27868;45.184;5.786;2022-09-09T01:52:59;3.57;;;1.10;;
42198;SDS011;27868;45.184;5.786;2022-09-09T02:06:08;7.32;;;1.52;;
42198;SDS011;27868;45.184;5.786;2022-09-09T02:09:10;4.15;;;1.15;;
42198;SDS011;27868;45.184;5.786;2022-09-09T02:12:02;7.35;;;1.10;;
42198;SDS011;27868;45.184;5.786;2022-09-09T02:15:06;4.70;;;1.10;;
42198;SDS011;27868;45.184;5.786;2022-09-09T02:17:58;3.58;;;1.08;;
42198;SDS011;27868;45.184;5.786;2022-09-09T02:20:46;5.38;;;1.10;;
42198;SDS011;27868;45.184;5.786;2022-09-09T02:23:31;2.95;;;1.15;;
42198;SDS011;27868;45.184;5.786;2022-09-09T02:26:17;4.88;;;0.90;;
42198;SDS011;27868;45.184;5.786;2022-09-09T02:29:08;4.15;;;1.15;;
42198;SDS011;27868;45.184;5.786;2022-09-09T02:32:00;6.18;;;1.10;;
42198;SDS011;27868;45.184;5.786;2022-09-09T02:34:58;6.13;;;1.23;;
42198;SDS011;27868;45.184;5.786;2022-09-09T02:37:48;4.32;;;1.25;;
42198;SDS011;27868;45.184;5.786;2022-09-09T02:40:35;4.13;;;1.20;;
42198;SDS011;27868;45.184;5.786;2022-09-09T02:43:20;3.15;;;0.98;;
42198;SDS011;27868;45.184;5.786;2022-09-09T02:58:26;1.42;;;0.90;;
42198;SDS011;27868;45.184;5.786;2022-09-09T03:01:11;4.20;;;0.90;;
42198;SDS011;27868;45.184;5.786;2022-09-09T03:03:56;2.72;;;1.00;;
42198;SDS011;27868;45.184;5.786;2022-09-09T03:06:41;1.80;;;0.98;;
42198;SDS011;27868;45.184;5.786;2022-09-09T03:09:25;3.42;;;0.90;;
42198;SDS011;27868;45.184;5.786;2022-09-09T03:12:10;2.15;;;0.80;;
42198;SDS011;27868;45.184;5.786;2022-09-09T03:14:54;1.60;;;0.93;;
42198;SDS011;27868;45.184;5.786;2022-09-09T03:17:39;1.38;;;0.85;;
42198;SDS011;27868;45.184;5.786;2022-09-09T03:20:24;4.00;;;1.13;;
42198;SDS011;27868;45.184;5.786;2022-09-09T03:23:10;2.67;;;0.93;;
42198;SDS011;27868;45.184;5.786;2022-09-09T03:25:57;4.07;;;1.13;;
42198;SDS011;27868;45.184;5.786;2022-09-09T03:28:42;7.07;;;1.52;;
42198;SDS011;27868;45.184;5.786;2022-09-09T03:31:28;3.22;;;0.90;;
42198;SDS011;27868;45.184;5.786;2022-09-09T03:34:14;3.80;;;1.05;;
42198;SDS011;27868;45.184;5.786;2022-09-09T03:36:58;4.85;;;0.80;;
42198;SDS011;27868;45.184;5.786;2022-09-09T03:39:43;1.80;;;0.85;;
42198;SDS011;27868;45.184;5.786;2022-09-09T03:42:28;5.70;;;1.10;;
42198;SDS011;27868;45.184;5.786;2022-09-09T03:45:12;5.05;;;1.00;;
42198;SDS011;27868;45.184;5.786;2022-09-09T03:47:57;2.58;;;1.10;;
42198;SDS011;27868;45.184;5.786;2022-09-09T03:50:45;3.42;;;0.90;;
42198;SDS011;27868;45.184;5.786;2022-09-09T03:56:17;4.45;;;1.27;;
42198;SDS011;27868;45.184;5.786;2022-09-09T03:59:02;5.10;;;1.10;;
42198;SDS011;27868;45.184;5.786;2022-09-09T04:01:47;2.10;;;0.85;;
42198;SDS011;27868;45.184;5.786;2022-09-09T04:04:32;3.28;;;0.90;;
42198;SDS011;27868;45.184;5.786;2022-09-09T04:07:17;3.05;;;1.20;;
42198;SDS011;27868;45.184;5.786;2022-09-09T04:10:01;4.18;;;1.00;;
42198;SDS011;27868;45.184;5.786;2022-09-09T04:12:45;5.22;;;1.30;;
42198;SDS011;27868;45.184;5.786;2022-09-09T04:15:31;4.28;;;1.45;;
42198;SDS011;27868;45.184;5.786;2022-09-09T04:18:17;7.32;;;1.40;;
42198;SDS011;27868;45.184;5.786;2022-09-09T04:21:01;2.33;;;1.00;;
42198;SDS011;27868;45.184;5.786;2022-09-09T04:23:47;7.47;;;1.20;;
42198;SDS011;27868;45.184;5.786;2022-09-09T04:26:32;6.95;;;1.33;;
42198;SDS011;27868;45.184;5.786;2022-09-09T04:29:18;2.90;;;1.10;;
42198;SDS011;27868;45.184;5.786;2022-09-09T04:32:02;6.35;;;1.00;;
42198;SDS011;27868;45.184;5.786;2022-09-09T04:34:47;6.00;;;1.38;;
42198;SDS011;27868;45.184;5.786;2022-09-09T04:37:32;6.25;;;1.10;;
42198;SDS011;27868;45.184;5.786;2022-09-09T04:40:17;2.90;;;1.00;;
42198;SDS011;27868;45.184;5.786;2022-09-09T04:43:01;2.58;;;1.10;;
42198;SDS011;27868;45.184;5.786;2022-09-09T04:45:50;3.13;;;0.90;;
42198;SDS011;27868;45.184;5.786;2022-09-09T04:48:35;3.08;;;1.10;;
42198;SDS011;27868;45.184;5.786;2022-09-09T04:51:20;2.28;;;1.20;;
42198;SDS011;27868;45.184;5.786;2022-09-09T04:54:04;4.57;;;0.95;;
42198;SDS011;27868;45.184;5.786;2022-09-09T04:56:50;4.50;;;1.17;;
42198;SDS011;27868;45.184;5.786;2022-09-09T04:59:35;3.80;;;1.05;;
42198;SDS011;27868;45.184;5.786;2022-09-09T05:02:19;2.72;;;1.00;;
42198;SDS011;27868;45.184;5.786;2022-09-09T05:05:04;8.10;;;1.42;;
42198;SDS011;27868;45.184;5.786;2022-09-09T05:07:50;4.68;;;1.20;;
42198;SDS011;27868;45.184;5.786;2022-09-09T05:10:36;5.07;;;1.05;;
42198;SDS011;27868;45.184;5.786;2022-09-09T05:13:22;2.80;;;1.30;;
42198;SDS011;27868;45.184;5.786;2022-09-09T05:16:07;2.55;;;0.95;;
42198;SDS011;27868;45.184;5.786;2022-09-09T05:18:54;4.35;;;1.40;;
42198;SDS011;27868;45.184;5.786;2022-09-09T05:21:39;2.90;;;1.08;;
42198;SDS011;27868;45.184;5.786;2022-09-09T05:24:25;2.28;;;1.02;;
42198;SDS011;27868;45.184;5.786;2022-09-09T05:27:10;5.30;;;1.20;;
42198;SDS011;27868;45.184;5.786;2022-09-09T05:29:56;5.82;;;1.15;;
42198;SDS011;27868;45.184;5.786;2022-09-09T05:32:41;5.25;;;1.17;;
42198;SDS011;27868;45.184;5.786;2022-09-09T05:35:26;5.45;;;1.58;;
42198;SDS011;27868;45.184;5.786;2022-09-09T05:38:11;3.83;;;1.08;;
42198;SDS011;27868;45.184;5.786;2022-09-09T05:40:56;2.08;;;1.30;;
42198;SDS011;27868;45.184;5.786;2022-09-09T05:43:41;4.85;;;1.77;;
42198;SDS011;27868;45.184;5.786;2022-09-09T05:46:28;1.80;;;0.90;;
42198;SDS011;27868;45.184;5.786;2022-09-09T05:49:13;6.53;;;0.90;;
42198;SDS011;27868;45.184;5.786;2022-09-09T05:52:00;2.80;;;1.00;;
42198;SDS011;27868;45.184;5.786;2022-09-09T05:54:45;4.53;;;1.10;;
42198;SDS011;27868;45.184;5.786;2022-09-09T05:57:29;1.70;;;0.98;;
42198;SDS011;27868;45.184;5.786;2022-09-09T06:00:14;4.35;;;1.00;;
42198;SDS011;27868;45.184;5.786;2022-09-09T06:03:00;2.45;;;1.17;;
42198;SDS011;27868;45.184;5.786;2022-09-09T06:05:45;4.20;;;1.40;;
42198;SDS011;27868;45.184;5.786;2022-09-09T06:08:29;5.22;;;1.00;;
42198;SDS011;27868;45.184;5.786;2022-09-09T06:14:11;5.00;;;1.67;;
42198;SDS011;27868;45.184;5.786;2022-09-09T06:16:56;4.43;;;1.42;;
42198;SDS011;27868;45.184;5.786;2022-09-09T06:19:41;2.75;;;1.20;;
42198;SDS011;27868;45.184;5.786;2022-09-09T06:22:25;5.70;;;1.45;;
42198;SDS011;27868;45.184;5.786;2022-09-09T06:25:10;4.15;;;1.30;;
42198;SDS011;27868;45.184;5.786;2022-09-09T06:27:54;3.17;;;1.10;;
42198;SDS011;27868;45.184;5.786;2022-09-09T06:30:39;5.40;;;1.25;;
42198;SDS011;27868;45.184;5.786;2022-09-09T06:33:24;2.13;;;1.50;;
42198;SDS011;27868;45.184;5.786;2022-09-09T06:36:10;6.03;;;1.25;;
42198;SDS011;27868;45.184;5.786;2022-09-09T06:39:00;6.40;;;1.50;;
42198;SDS011;27868;45.184;5.786;2022-09-09T06:41:45;3.13;;;1.00;;
42198;SDS011;27868;45.184;5.786;2022-09-09T06:44:31;5.05;;;1.10;;
42198;SDS011;27868;45.184;5.786;2022-09-09T06:47:17;5.00;;;1.40;;
42198;SDS011;27868;45.184;5.786;2022-09-09T06:50:02;7.85;;;1.40;;
42198;SDS011;27868;45.184;5.786;2022-09-09T06:52:47;9.43;;;1.58;;
42198;SDS011;27868;45.184;5.786;2022-09-09T06:55:32;5.07;;;1.42;;
42198;SDS011;27868;45.184;5.786;2022-09-09T06:58:16;9.70;;;2.10;;
42198;SDS011;27868;45.184;5.786;2022-09-09T07:01:02;2.10;;;1.45;;
42198;SDS011;27868;45.184;5.786;2022-09-09T07:03:49;8.88;;;1.48;;
42198;SDS011;27868;45.184;5.786;2022-09-09T07:06:35;3.17;;;1.27;;
42198;SDS011;27868;45.184;5.786;2022-09-09T07:09:22;4.10;;;1.60;;
42198;SDS011;27868;45.184;5.786;2022-09-09T07:12:07;2.70;;;1.40;;
42198;SDS011;27868;45.184;5.786;2022-09-09T07:14:52;3.53;;;1.35;;
42198;SDS011;27868;45.184;5.786;2022-09-09T07:17:36;3.78;;;1.20;;
42198;SDS011;27868;45.184;5.786;2022-09-09T07:20:21;7.40;;;1.42;;
42198;SDS011;27868;45.184;5.786;2022-09-09T07:23:06;3.42;;;1.17;;
42198;SDS011;27868;45.184;5.786;2022-09-09T07:25:51;2.53;;;1.08;;
42198;SDS011;27868;45.184;5.786;2022-09-09T07:28:37;5.18;;;1.40;;
42198;SDS011;27868;45.184;5.786;2022-09-09T07:31:27;4.18;;;1.40;;
42198;SDS011;27868;45.184;5.786;2022-09-09T07:34:14;2.53;;;1.33;;
42198;SDS011;27868;45.184;5.786;2022-09-09T07:36:59;4.72;;;1.30;;
42198;SDS011;27868;45.184;5.786;2022-09-09T07:39:43;4.05;;;1.20;;
42198;SDS011;27868;45.184;5.786;2022-09-09T07:42:28;4.40;;;1.40;;
42198;SDS011;27868;45.184;5.786;2022-09-09T07:45:13;5.97;;;1.52;;
42198;SDS011;27868;45.184;5.786;2022-09-09T07:47:58;3.00;;;1.23;;
42198;SDS011;27868;45.184;5.786;2022-09-09T07:50:43;3.17;;;1.38;;
42198;SDS011;27868;45.184;5.786;2022-09-09T07:53:28;5.47;;;1.38;;
42198;SDS011;27868;45.184;5.786;2022-09-09T07:56:16;3.55;;;1.38;;
42198;SDS011;27868;45.184;5.786;2022-09-09T07:59:03;5.90;;;1.13;;
42198;SDS011;27868;45.184;5.786;2022-09-09T08:01:50;2.83;;;1.17;;
42198;SDS011;27868;45.184;5.786;2022-09-09T08:04:39;6.15;;;1.38;;
42198;SDS011;27868;45.184;5.786;2022-09-09T08:07:23;3.05;;;1.48;;
42198;SDS011;27868;45.184;5.786;2022-09-09T08:10:08;4.28;;;1.10;;
42198;SDS011;27868;45.184;5.786;2022-09-09T08:12:53;44.28;;;3.85;;
42198;SDS011;27868;45.184;5.786;2022-09-09T08:15:37;6.20;;;1.48;;
42198;SDS011;27868;45.184;5.786;2022-09-09T08:18:23;4.03;;;1.30;;
42198;SDS011;27868;45.184;5.786;2022-09-09T08:21:09;2.90;;;1.30;;
42198;SDS011;27868;45.184;5.786;2022-09-09T08:23:59;3.53;;;1.40;;
42198;SDS011;27868;45.184;5.786;2022-09-09T08:26:46;8.48;;;1.55;;
42198;SDS011;27868;45.184;5.786;2022-09-09T08:29:33;2.17;;;1.10;;
42198;SDS011;27868;45.184;5.786;2022-09-09T08:32:18;2.42;;;1.20;;
42198;SDS011;27868;45.184;5.786;2022-09-09T08:35:03;3.13;;;1.50;;
42198;SDS011;27868;45.184;5.786;2022-09-09T08:37:48;4.47;;;1.55;;
42198;SDS011;27868;45.184;5.786;2022-09-09T08:40:39;5.32;;;1.30;;
42198;SDS011;27868;45.184;5.786;2022-09-09T08:43:33;4.82;;;1.10;;
42198;SDS011;27868;45.184;5.786;2022-09-09T08:46:21;4.90;;;1.08;;
42198;SDS011;27868;45.184;5.786;2022-09-09T08:52:28;2.38;;;1.00;;
42198;SDS011;27868;45.184;5.786;2022-09-09T08:55:28;3.42;;;1.20;;
42198;SDS011;27868;45.184;5.786;2022-09-09T08:58:33;6.68;;;1.10;;
42198;SDS011;27868;45.184;5.786;2022-09-09T09:01:44;6.40;;;1.50;;
42198;SDS011;27868;45.184;5.786;2022-09-09T09:04:44;2.47;;;1.00;;
42198;SDS011;27868;45.184;5.786;2022-09-09T09:08:11;3.08;;;1.15;;
42198;SDS011;27868;45.184;5.786;2022-09-09T09:11:01;4.55;;;1.05;;
42198;SDS011;27868;45.184;5.786;2022-09-09T09:13:48;3.78;;;1.20;;
42198;SDS011;27868;45.184;5.786;2022-09-09T09:16:45;2.00;;;1.02;;
42198;SDS011;27868;45.184;5.786;2022-09-09T09:19:34;5.82;;;1.65;;
42198;SDS011;27868;45.184;5.786;2022-09-09T09:22:23;2.58;;;1.05;;
42198;SDS011;27868;45.184;5.786;2022-09-09T09:25:34;4.28;;;1.20;;
42198;SDS011;27868;45.184;5.786;2022-09-09T09:28:24;3.97;;;1.00;;
42198;SDS011;27868;45.184;5.786;2022-09-09T09:31:13;3.55;;;1.00;;
42198;SDS011;27868;45.184;5.786;2022-09-09T09:33:57;5.45;;;1.20;;
42198;SDS011;27868;45.184;5.786;2022-09-09T09:36:53;5.63;;;0.90;;
42198;SDS011;27868;45.184;5.786;2022-09-09T09:39:40;2.17;;;0.70;;
42198;SDS011;27868;45.184;5.786;2022-09-09T09:42:24;4.53;;;0.80;;
42198;SDS011;27868;45.184;5.786;2022-09-09T09:48:28;2.40;;;0.70;;
42198;SDS011;27868;45.184;5.786;2022-09-09T09:51:15;2.20;;;0.70;;
42198;SDS011;27868;45.184;5.786;2022-09-09T09:57:09;2.63;;;0.80;;
42198;SDS011;27868;45.184;5.786;2022-09-09T10:03:12;2.97;;;0.52;;
42198;SDS011;27868;45.184;5.786;2022-09-09T10:06:06;2.53;;;0.60;;
42198;SDS011;27868;45.184;5.786;2022-09-09T10:08:51;4.05;;;0.60;;
42198;SDS011;27868;45.184;5.786;2022-09-09T10:18:10;5.70;;;1.13;;
42198;SDS011;27868;45.184;5.786;2022-09-09T10:30:17;3.08;;;0.73;;
42198;SDS011;27868;45.184;5.786;2022-09-09T10:33:09;3.10;;;0.57;;
42198;SDS011;27868;45.184;5.786;2022-09-09T10:36:07;1.65;;;0.60;;
42198;SDS011;27868;45.184;5.786;2022-09-09T10:39:03;5.22;;;0.88;;
42198;SDS011;27868;45.184;5.786;2022-09-09T10:41:52;1.25;;;0.60;;
42198;SDS011;27868;45.184;5.786;2022-09-09T10:48:05;2.97;;;0.82;;
42198;SDS011;27868;45.184;5.786;2022-09-09T10:51:29;2.45;;;0.80;;
42198;SDS011;27868;45.184;5.786;2022-09-09T10:54:22;4.65;;;1.05;;
42198;SDS011;27868;45.184;5.786;2022-09-09T10:57:31;1.00;;;0.50;;
42198;SDS011;27868;45.184;5.786;2022-09-09T11:00:20;2.88;;;0.80;;
42198;SDS011;27868;45.184;5.786;2022-09-09T11:03:05;1.92;;;0.65;;
42198;SDS011;27868;45.184;5.786;2022-09-09T11:08:46;5.07;;;0.70;;
42198;SDS011;27868;45.184;5.786;2022-09-09T11:11:42;3.72;;;0.60;;
42198;SDS011;27868;45.184;5.786;2022-09-09T11:14:37;1.83;;;0.50;;
42198;SDS011;27868;45.184;5.786;2022-09-09T11:17:28;3.65;;;0.65;;
42198;SDS011;27868;45.184;5.786;2022-09-09T11:20:20;2.80;;;0.70;;
42198;SDS011;27868;45.184;5.786;2022-09-09T11:23:09;3.00;;;0.80;;
42198;SDS011;27868;45.184;5.786;2022-09-09T11:25:59;1.30;;;0.52;;
42198;SDS011;27868;45.184;5.786;2022-09-09T11:28:58;1.70;;;0.57;;
42198;SDS011;27868;45.184;5.786;2022-09-09T11:32:19;2.60;;;0.60;;
42198;SDS011;27868;45.184;5.786;2022-09-09T11:41:13;3.55;;;0.60;;
42198;SDS011;27868;45.184;5.786;2022-09-09T11:44:08;1.25;;;0.60;;
42198;SDS011;27868;45.184;5.786;2022-09-09T11:47:01;1.42;;;0.60;;
42198;SDS011;27868;45.184;5.786;2022-09-09T11:49:46;2.15;;;0.77;;
42198;SDS011;27868;45.184;5.786;2022-09-09T11:55:32;2.03;;;0.52;;
42198;SDS011;27868;45.184;5.786;2022-09-09T11:58:21;2.35;;;0.50;;
42198;SDS011;27868;45.184;5.786;2022-09-09T12:01:13;1.98;;;0.52;;
42198;SDS011;27868;45.184;5.786;2022-09-09T12:04:31;2.17;;;0.55;;
42198;SDS011;27868;45.184;5.786;2022-09-09T12:07:25;0.82;;;0.40;;
42198;SDS011;27868;45.184;5.786;2022-09-09T12:10:34;2.10;;;0.60;;
42198;SDS011;27868;45.184;5.786;2022-09-09T12:13:24;1.25;;;0.60;;
42198;SDS011;27868;45.184;5.786;2022-09-09T12:16:27;2.00;;;0.40;;
42198;SDS011;27868;45.184;5.786;2022-09-09T12:19:20;1.90;;;0.40;;
42198;SDS011;27868;45.184;5.786;2022-09-09T12:25:33;4.13;;;0.55;;
42198;SDS011;27868;45.184;5.786;2022-09-09T12:28:39;1.60;;;0.60;;
42198;SDS011;27868;45.184;5.786;2022-09-09T12:31:30;0.98;;;0.50;;
42198;SDS011;27868;45.184;5.786;2022-09-09T12:37:37;1.42;;;0.30;;
42198;SDS011;27868;45.184;5.786;2022-09-09T12:40:29;2.67;;;0.65;;
42198;SDS011;27868;45.184;5.786;2022-09-09T12:43:20;1.38;;;0.38;;
42198;SDS011;27868;45.184;5.786;2022-09-09T12:46:07;1.02;;;0.40;;
42198;SDS011;27868;45.184;5.786;2022-09-09T12:49:05;2.58;;;0.50;;
42198;SDS011;27868;45.184;5.786;2022-09-09T12:52:22;3.42;;;0.43;;
42198;SDS011;27868;45.184;5.786;2022-09-09T12:55:21;2.25;;;0.50;;
42198;SDS011;27868;45.184;5.786;2022-09-09T12:58:11;0.82;;;0.40;;
42198;SDS011;27868;45.184;5.786;2022-09-09T13:01:01;1.20;;;0.40;;
42198;SDS011;27868;45.184;5.786;2022-09-09T13:03:49;1.15;;;0.43;;
42198;SDS011;27868;45.184;5.786;2022-09-09T13:06:34;2.65;;;0.50;;
42198;SDS011;27868;45.184;5.786;2022-09-09T13:09:19;1.77;;;0.40;;
42198;SDS011;27868;45.184;5.786;2022-09-09T13:12:04;2.05;;;0.40;;
42198;SDS011;27868;45.184;5.786;2022-09-09T13:14:53;1.08;;;0.40;;
42198;SDS011;27868;45.184;5.786;2022-09-09T13:17:40;1.58;;;0.40;;
42198;SDS011;27868;45.184;5.786;2022-09-09T13:20:25;1.83;;;0.50;;
42198;SDS011;27868;45.184;5.786;2022-09-09T13:23:10;1.38;;;0.40;;
42198;SDS011;27868;45.184;5.786;2022-09-09T13:25:57;2.17;;;0.65;;
42198;SDS011;27868;45.184;5.786;2022-09-09T13:28:43;0.93;;;0.47;;
42198;SDS011;27868;45.184;5.786;2022-09-09T13:31:32;3.38;;;0.50;;
42198;SDS011;27868;45.184;5.786;2022-09-09T13:34:26;0.77;;;0.40;;
42198;SDS011;27868;45.184;5.786;2022-09-09T13:37:20;2.05;;;0.47;;
42198;SDS011;27868;45.184;5.786;2022-09-09T13:40:20;2.72;;;0.88;;
42198;SDS011;27868;45.184;5.786;2022-09-09T13:43:10;2.58;;;0.30;;
42198;SDS011;27868;45.184;5.786;2022-09-09T13:46:58;1.80;;;0.40;;
42198;SDS011;27868;45.184;5.786;2022-09-09T13:52:06;0.82;;;0.40;;
42198;SDS011;27868;45.184;5.786;2022-09-09T13:54:55;1.70;;;0.60;;
42198;SDS011;27868;45.184;5.786;2022-09-09T13:57:51;1.77;;;0.55;;
42198;SDS011;27868;45.184;5.786;2022-09-09T14:00:36;1.77;;;0.40;;
42198;SDS011;27868;45.184;5.786;2022-09-09T14:03:21;1.83;;;0.60;;
42198;SDS011;27868;45.184;5.786;2022-09-09T14:06:06;1.13;;;0.40;;
42198;SDS011;27868;45.184;5.786;2022-09-09T14:08:51;1.48;;;0.40;;
42198;SDS011;27868;45.184;5.786;2022-09-09T14:11:36;1.77;;;0.50;;
42198;SDS011;27868;45.184;5.786;2022-09-09T14:14:20;1.13;;;0.30;;
42198;SDS011;27868;45.184;5.786;2022-09-09T14:17:05;1.08;;;0.38;;
42198;SDS011;27868;45.184;5.786;2022-09-09T14:19:50;1.88;;;0.25;;
42198;SDS011;27868;45.184;5.786;2022-09-09T14:22:35;2.53;;;0.40;;
42198;SDS011;27868;45.184;5.786;2022-09-09T14:25:20;1.90;;;0.40;;
42198;SDS011;27868;45.184;5.786;2022-09-09T14:28:05;1.83;;;0.60;;
42198;SDS011;27868;45.184;5.786;2022-09-09T14:30:52;0.90;;;0.45;;
42198;SDS011;27868;45.184;5.786;2022-09-09T14:33:36;1.58;;;0.38;;
42198;SDS011;27868;45.184;5.786;2022-09-09T14:36:21;2.47;;;0.30;;
42198;SDS011;27868;45.184;5.786;2022-09-09T14:39:07;0.50;;;0.20;;
42198;SDS011;27868;45.184;5.786;2022-09-09T14:41:52;0.63;;;0.30;;
42198;SDS011;27868;45.184;5.786;2022-09-09T14:44:37;2.63;;;0.40;;
42198;SDS011;27868;45.184;5.786;2022-09-09T14:47:25;0.22;;;0.20;;
42198;SDS011;27868;45.184;5.786;2022-09-09T14:51:43;1.40;;;0.30;;
42198;SDS011;27868;45.184;5.786;2022-09-09T14:54:27;1.00;;;0.40;;
42198;SDS011;27868;45.184;5.786;2022-09-09T14:57:12;1.15;;;0.30;;
42198;SDS011;27868;45.184;5.786;2022-09-09T14:59:57;1.35;;;0.25;;
42198;SDS011;27868;45.184;5.786;2022-09-09T15:02:42;0.75;;;0.20;;
42198;SDS011;27868;45.184;5.786;2022-09-09T15:05:27;0.63;;;0.25;;
42198;SDS011;27868;45.184;5.786;2022-09-09T15:08:12;0.65;;;0.20;;
42198;SDS011;27868;45.184;5.786;2022-09-09T15:11:00;1.77;;;0.47;;
42198;SDS011;27868;45.184;5.786;2022-09-09T15:13:50;0.88;;;0.30;;
42198;SDS011;27868;45.184;5.786;2022-09-09T15:16:39;1.73;;;0.30;;
42198;SDS011;27868;45.184;5.786;2022-09-09T15:19:24;0.80;;;0.35;;
42198;SDS011;27868;45.184;5.786;2022-09-09T15:22:09;2.03;;;0.30;;
42198;SDS011;27868;45.184;5.786;2022-09-09T15:24:54;2.95;;;0.50;;
42198;SDS011;27868;45.184;5.786;2022-09-09T15:27:39;0.65;;;0.20;;
42198;SDS011;27868;45.184;5.786;2022-09-09T15:30:24;1.45;;;0.43;;
42198;SDS011;27868;45.184;5.786;2022-09-09T15:33:09;2.05;;;0.60;;
42198;SDS011;27868;45.184;5.786;2022-09-09T15:35:53;1.15;;;0.40;;
42198;SDS011;27868;45.184;5.786;2022-09-09T15:38:38;1.42;;;0.25;;
42198;SDS011;27868;45.184;5.786;2022-09-09T15:41:24;1.50;;;0.40;;
42198;SDS011;27868;45.184;5.786;2022-09-09T15:44:09;2.15;;;0.40;;
42198;SDS011;27868;45.184;5.786;2022-09-09T15:46:56;1.27;;;0.30;;
42198;SDS011;27868;45.184;5.786;2022-09-09T15:49:40;1.40;;;0.40;;
42198;SDS011;27868;45.184;5.786;2022-09-09T15:52:25;5.10;;;1.23;;
42198;SDS011;27868;45.184;5.786;2022-09-09T15:55:09;1.52;;;0.25;;
42198;SDS011;27868;45.184;5.786;2022-09-09T15:57:54;0.93;;;0.30;;
42198;SDS011;27868;45.184;5.786;2022-09-09T16:00:39;2.28;;;0.43;;
42198;SDS011;27868;45.184;5.786;2022-09-09T16:03:23;4.68;;;0.40;;
42198;SDS011;27868;45.184;5.786;2022-09-09T16:06:08;1.17;;;0.30;;
42198;SDS011;27868;45.184;5.786;2022-09-09T16:08:54;0.90;;;0.30;;
42198;SDS011;27868;45.184;5.786;2022-09-09T16:11:41;1.65;;;0.30;;
42198;SDS011;27868;45.184;5.786;2022-09-09T16:14:25;4.07;;;0.95;;
42198;SDS011;27868;45.184;5.786;2022-09-09T16:17:10;2.40;;;0.60;;
42198;SDS011;27868;45.184;5.786;2022-09-09T16:19:55;5.28;;;0.32;;
42198;SDS011;27868;45.184;5.786;2022-09-09T16:22:41;3.38;;;0.40;;
42198;SDS011;27868;45.184;5.786;2022-09-09T16:25:26;2.03;;;0.38;;
42198;SDS011;27868;45.184;5.786;2022-09-09T16:28:11;2.05;;;0.57;;
42198;SDS011;27868;45.184;5.786;2022-09-09T16:30:55;0.40;;;0.30;;
42198;SDS011;27868;45.184;5.786;2022-09-09T16:33:42;2.55;;;0.38;;
42198;SDS011;27868;45.184;5.786;2022-09-09T16:36:28;1.83;;;0.40;;
42198;SDS011;27868;45.184;5.786;2022-09-09T16:39:18;1.52;;;0.32;;
42198;SDS011;27868;45.184;5.786;2022-09-09T16:42:04;2.78;;;0.30;;
42198;SDS011;27868;45.184;5.786;2022-09-09T16:44:48;1.35;;;0.30;;
42198;SDS011;27868;45.184;5.786;2022-09-09T16:47:34;1.00;;;0.30;;
42198;SDS011;27868;45.184;5.786;2022-09-09T16:50:18;4.15;;;0.40;;
42198;SDS011;27868;45.184;5.786;2022-09-09T16:53:03;2.10;;;0.30;;
42198;SDS011;27868;45.184;5.786;2022-09-09T16:55:50;3.58;;;0.40;;
42198;SDS011;27868;45.184;5.786;2022-09-09T16:58:35;2.63;;;0.50;;
42198;SDS011;27868;45.184;5.786;2022-09-09T17:01:28;2.05;;;0.50;;
42198;SDS011;27868;45.184;5.786;2022-09-09T17:04:16;3.88;;;0.45;;
42198;SDS011;27868;45.184;5.786;2022-09-09T17:07:07;0.90;;;0.32;;
42198;SDS011;27868;45.184;5.786;2022-09-09T17:09:53;0.95;;;0.50;;
42198;SDS011;27868;45.184;5.786;2022-09-09T17:12:38;2.22;;;0.40;;
42198;SDS011;27868;45.184;5.786;2022-09-09T17:15:24;2.33;;;0.40;;
42198;SDS011;27868;45.184;5.786;2022-09-09T17:18:09;1.35;;;0.38;;
42198;SDS011;27868;45.184;5.786;2022-09-09T17:20:55;2.15;;;0.57;;
42198;SDS011;27868;45.184;5.786;2022-09-09T17:23:39;2.00;;;0.63;;
42198;SDS011;27868;45.184;5.786;2022-09-09T17:26:26;3.10;;;0.45;;
42198;SDS011;27868;45.184;5.786;2022-09-09T17:29:13;2.88;;;0.57;;
42198;SDS011;27868;45.184;5.786;2022-09-09T17:31:57;0.68;;;0.40;;
42198;SDS011;27868;45.184;5.786;2022-09-09T17:34:42;3.90;;;0.60;;
42198;SDS011;27868;45.184;5.786;2022-09-09T17:37:27;10.45;;;1.23;;
42198;SDS011;27868;45.184;5.786;2022-09-09T17:40:12;2.55;;;0.60;;
42198;SDS011;27868;45.184;5.786;2022-09-09T17:42:57;1.70;;;0.30;;
42198;SDS011;27868;45.184;5.786;2022-09-09T17:45:42;1.40;;;0.30;;
42198;SDS011;27868;45.184;5.786;2022-09-09T17:48:26;1.33;;;0.40;;
42198;SDS011;27868;45.184;5.786;2022-09-09T17:51:20;1.45;;;0.38;;
42198;SDS011;27868;45.184;5.786;2022-09-09T17:54:13;2.28;;;0.40;;
42198;SDS011;27868;45.184;5.786;2022-09-09T17:57:00;2.38;;;0.50;;
42198;SDS011;27868;45.184;5.786;2022-09-09T17:59:45;1.27;;;0.45;;
42198;SDS011;27868;45.184;5.786;2022-09-09T18:02:29;1.27;;;0.43;;
42198;SDS011;27868;45.184;5.786;2022-09-09T18:05:14;2.00;;;0.40;;
42198;SDS011;27868;45.184;5.786;2022-09-09T18:07:59;4.10;;;0.60;;
42198;SDS011;27868;45.184;5.786;2022-09-09T18:10:51;1.15;;;0.43;;
42198;SDS011;27868;45.184;5.786;2022-09-09T18:13:38;0.75;;;0.45;;
42198;SDS011;27868;45.184;5.786;2022-09-09T18:16:24;2.22;;;0.38;;
42198;SDS011;27868;45.184;5.786;2022-09-09T18:19:10;2.88;;;0.55;;
42198;SDS011;27868;45.184;5.786;2022-09-09T18:21:57;1.38;;;0.38;;
42198;SDS011;27868;45.184;5.786;2022-09-09T18:24:42;1.90;;;0.40;;
42198;SDS011;27868;45.184;5.786;2022-09-09T18:27:31;2.97;;;0.40;;
42198;SDS011;27868;45.184;5.786;2022-09-09T18:30:15;3.67;;;0.90;;
42198;SDS011;27868;45.184;5.786;2022-09-09T18:33:00;1.38;;;0.30;;
42198;SDS011;27868;45.184;5.786;2022-09-09T18:35:44;0.60;;;0.40;;
42198;SDS011;27868;45.184;5.786;2022-09-09T18:38:31;3.05;;;0.50;;
42198;SDS011;27868;45.184;5.786;2022-09-09T18:41:22;1.48;;;0.60;;
42198;SDS011;27868;45.184;5.786;2022-09-09T18:44:10;2.22;;;0.88;;